sensor_id;sensor_type;location;lat;lon;timestamp;temperature;humidity
770;DHT22;368;48.698;9.116;2023-02-28T00:01:19;-2.30;93.90
770;DHT22;368;48.698;9.116;2023-02-28T00:03:46;-2.10;94.00
770;DHT22;368;48.698;9.116;2023-02-28T00:06:13;-2.40;94.00
770;DHT22;368;48.698;9.116;2023-02-28T00:08:40;-2.40;94.30
770;DHT22;368;48.698;9.116;2023-02-28T00:11:09;-2.40;94.30
770;DHT22;368;48.698;9.116;2023-02-28T00:13:38;-2.40;94.40
770;DHT22;368;48.698;9.116;2023-02-28T00:16:08;-2.40;94.50
770;DHT22;368;48.698;9.116;2023-02-28T00:18:35;-2.40;94.90
770;DHT22;368;48.698;9.116;2023-02-28T00:21:03;-2.30;94.80
770;DHT22;368;48.698;9.116;2023-02-28T00:23:30;-2.50;94.80
770;DHT22;368;48.698;9.116;2023-02-28T00:25:56;-2.40;95.20
770;DHT22;368;48.698;9.116;2023-02-28T00:28:24;-2.40;95.50
770;DHT22;368;48.698;9.116;2023-02-28T00:30:52;-2.40;95.60
770;DHT22;368;48.698;9.116;2023-02-28T00:33:19;-2.60;95.80
770;DHT22;368;48.698;9.116;2023-02-28T00:35:45;-2.50;95.90
770;DHT22;368;48.698;9.116;2023-02-28T00:38:14;-2.60;95.90
770;DHT22;368;48.698;9.116;2023-02-28T00:40:40;-2.50;96.40
770;DHT22;368;48.698;9.116;2023-02-28T00:43:07;-2.70;96.50
770;DHT22;368;48.698;9.116;2023-02-28T00:45:34;-2.60;96.50
770;DHT22;368;48.698;9.116;2023-02-28T00:48:03;-2.70;96.70
770;DHT22;368;48.698;9.116;2023-02-28T00:50:29;-2.70;96.70
770;DHT22;368;48.698;9.116;2023-02-28T00:52:56;-2.70;97.20
770;DHT22;368;48.698;9.116;2023-02-28T00:55:23;-2.80;97.40
770;DHT22;368;48.698;9.116;2023-02-28T00:57:50;-2.80;97.10
770;DHT22;368;48.698;9.116;2023-02-28T01:00:17;-3.00;97.60
770;DHT22;368;48.698;9.116;2023-02-28T01:02:44;-2.90;97.60
770;DHT22;368;48.698;9.116;2023-02-28T01:05:12;-2.70;97.50
770;DHT22;368;48.698;9.116;2023-02-28T01:07:39;-2.80;97.60
770;DHT22;368;48.698;9.116;2023-02-28T01:10:06;-2.80;97.80
770;DHT22;368;48.698;9.116;2023-02-28T01:12:33;-2.70;98.20
770;DHT22;368;48.698;9.116;2023-02-28T01:15:00;-2.70;98.00
770;DHT22;368;48.698;9.116;2023-02-28T01:17:27;-2.70;98.40
770;DHT22;368;48.698;9.116;2023-02-28T01:19:54;-2.70;98.20
770;DHT22;368;48.698;9.116;2023-02-28T01:22:22;-2.90;98.10
770;DHT22;368;48.698;9.116;2023-02-28T01:24:49;-2.90;98.00
770;DHT22;368;48.698;9.116;2023-02-28T01:27:16;-2.90;98.30
770;DHT22;368;48.698;9.116;2023-02-28T01:29:42;-2.70;98.40
770;DHT22;368;48.698;9.116;2023-02-28T01:32:09;-3.00;99.00
770;DHT22;368;48.698;9.116;2023-02-28T01:34:36;-3.10;99.00
770;DHT22;368;48.698;9.116;2023-02-28T01:37:03;-2.80;99.20
770;DHT22;368;48.698;9.116;2023-02-28T01:39:32;-3.00;99.40
770;DHT22;368;48.698;9.116;2023-02-28T01:41:58;-3.10;99.50
770;DHT22;368;48.698;9.116;2023-02-28T01:44:54;-2.90;99.70
770;DHT22;368;48.698;9.116;2023-02-28T01:47:22;-3.30;99.90
770;DHT22;368;48.698;9.116;2023-02-28T01:49:51;-3.20;99.90
770;DHT22;368;48.698;9.116;2023-02-28T01:52:19;-3.20;99.90
770;DHT22;368;48.698;9.116;2023-02-28T01:54:51;-3.10;99.90
770;DHT22;368;48.698;9.116;2023-02-28T01:57:21;-3.00;99.90
770;DHT22;368;48.698;9.116;2023-02-28T01:59:53;-2.80;99.90
770;DHT22;368;48.698;9.116;2023-02-28T02:02:21;-3.20;99.90
770;DHT22;368;48.698;9.116;2023-02-28T02:04:53;-3.10;99.90
770;DHT22;368;48.698;9.116;2023-02-28T02:07:21;-3.00;99.90
770;DHT22;368;48.698;9.116;2023-02-28T02:09:49;-2.90;99.90
770;DHT22;368;48.698;9.116;2023-02-28T02:12:25;-3.10;99.90
770;DHT22;368;48.698;9.116;2023-02-28T02:15:01;-2.80;99.90
770;DHT22;368;48.698;9.116;2023-02-28T02:17:36;-3.10;99.90
770;DHT22;368;48.698;9.116;2023-02-28T02:20:31;-2.80;99.90
770;DHT22;368;48.698;9.116;2023-02-28T02:23:31;-3.10;99.90
770;DHT22;368;48.698;9.116;2023-02-28T02:26:21;-2.90;99.90
770;DHT22;368;48.698;9.116;2023-02-28T02:29:15;-2.80;99.90
770;DHT22;368;48.698;9.116;2023-02-28T02:32:08;-3.10;99.90
770;DHT22;368;48.698;9.116;2023-02-28T02:34:58;-2.80;99.90
770;DHT22;368;48.698;9.116;2023-02-28T02:37:31;-3.10;99.90
770;DHT22;368;48.698;9.116;2023-02-28T02:40:07;-2.70;99.90
770;DHT22;368;48.698;9.116;2023-02-28T02:42:40;-2.70;99.90
770;DHT22;368;48.698;9.116;2023-02-28T02:45:11;-2.50;99.90
770;DHT22;368;48.698;9.116;2023-02-28T02:47:39;-2.80;99.90
770;DHT22;368;48.698;9.116;2023-02-28T02:50:14;-2.80;99.90
770;DHT22;368;48.698;9.116;2023-02-28T02:52:48;-2.60;99.90
770;DHT22;368;48.698;9.116;2023-02-28T02:55:16;-2.40;99.90
770;DHT22;368;48.698;9.116;2023-02-28T02:57:47;-2.70;99.90
770;DHT22;368;48.698;9.116;2023-02-28T03:00:16;-2.50;99.90
770;DHT22;368;48.698;9.116;2023-02-28T03:02:45;-2.40;99.90
770;DHT22;368;48.698;9.116;2023-02-28T03:05:20;-2.60;99.90
770;DHT22;368;48.698;9.116;2023-02-28T03:07:48;-2.70;99.90
770;DHT22;368;48.698;9.116;2023-02-28T03:10:30;-2.40;99.90
770;DHT22;368;48.698;9.116;2023-02-28T03:13:09;-2.40;99.90
770;DHT22;368;48.698;9.116;2023-02-28T03:15:48;-2.60;99.90
770;DHT22;368;48.698;9.116;2023-02-28T03:18:26;-2.70;99.90
770;DHT22;368;48.698;9.116;2023-02-28T03:21:04;-2.60;99.90
770;DHT22;368;48.698;9.116;2023-02-28T03:23:38;-2.60;99.90
770;DHT22;368;48.698;9.116;2023-02-28T03:26:13;-2.70;99.90
770;DHT22;368;48.698;9.116;2023-02-28T03:28:47;-2.70;99.90
770;DHT22;368;48.698;9.116;2023-02-28T03:31:21;-2.60;99.90
770;DHT22;368;48.698;9.116;2023-02-28T03:33:54;-2.70;99.90
770;DHT22;368;48.698;9.116;2023-02-28T03:36:27;-2.50;99.90
770;DHT22;368;48.698;9.116;2023-02-28T03:38:58;-2.40;99.90
770;DHT22;368;48.698;9.116;2023-02-28T03:41:31;-2.60;99.90
770;DHT22;368;48.698;9.116;2023-02-28T03:44:02;-2.60;99.90
770;DHT22;368;48.698;9.116;2023-02-28T03:46:33;-2.60;99.90
770;DHT22;368;48.698;9.116;2023-02-28T03:49:03;-2.40;99.90
770;DHT22;368;48.698;9.116;2023-02-28T03:51:34;-2.50;99.90
770;DHT22;368;48.698;9.116;2023-02-28T03:54:05;-2.30;99.90
770;DHT22;368;48.698;9.116;2023-02-28T03:56:38;-2.50;99.90
770;DHT22;368;48.698;9.116;2023-02-28T03:59:09;-2.50;99.90
770;DHT22;368;48.698;9.116;2023-02-28T04:01:41;-2.20;99.90
770;DHT22;368;48.698;9.116;2023-02-28T04:04:10;-2.60;99.90
770;DHT22;368;48.698;9.116;2023-02-28T04:06:39;-2.20;99.90
770;DHT22;368;48.698;9.116;2023-02-28T04:09:09;-2.20;99.90
770;DHT22;368;48.698;9.116;2023-02-28T04:11:38;-2.20;99.90
770;DHT22;368;48.698;9.116;2023-02-28T04:14:06;-2.50;99.90
770;DHT22;368;48.698;9.116;2023-02-28T04:16:35;-2.40;99.90
770;DHT22;368;48.698;9.116;2023-02-28T04:19:03;-2.00;99.90
770;DHT22;368;48.698;9.116;2023-02-28T04:21:31;-2.40;99.90
770;DHT22;368;48.698;9.116;2023-02-28T04:24:00;-2.00;99.90
770;DHT22;368;48.698;9.116;2023-02-28T04:26:29;-2.00;99.90
770;DHT22;368;48.698;9.116;2023-02-28T04:28:57;-2.00;99.90
770;DHT22;368;48.698;9.116;2023-02-28T04:31:24;-2.40;99.90
770;DHT22;368;48.698;9.116;2023-02-28T04:33:50;-2.00;99.90
770;DHT22;368;48.698;9.116;2023-02-28T04:36:17;-2.10;99.90
770;DHT22;368;48.698;9.116;2023-02-28T04:38:45;-2.10;99.90
770;DHT22;368;48.698;9.116;2023-02-28T04:41:14;-2.20;99.90
770;DHT22;368;48.698;9.116;2023-02-28T04:43:40;-2.10;99.90
770;DHT22;368;48.698;9.116;2023-02-28T04:46:08;-2.00;99.90
770;DHT22;368;48.698;9.116;2023-02-28T04:48:37;-2.00;99.90
770;DHT22;368;48.698;9.116;2023-02-28T04:51:05;-2.00;99.90
770;DHT22;368;48.698;9.116;2023-02-28T04:53:32;-2.00;99.90
770;DHT22;368;48.698;9.116;2023-02-28T04:56:00;-2.00;99.90
770;DHT22;368;48.698;9.116;2023-02-28T04:58:28;-1.90;99.90
770;DHT22;368;48.698;9.116;2023-02-28T05:01:01;-2.00;99.90
770;DHT22;368;48.698;9.116;2023-02-28T05:03:28;-2.20;99.90
770;DHT22;368;48.698;9.116;2023-02-28T05:05:55;-2.10;99.90
770;DHT22;368;48.698;9.116;2023-02-28T05:08:22;-2.10;99.90
770;DHT22;368;48.698;9.116;2023-02-28T05:10:48;-2.10;99.90
770;DHT22;368;48.698;9.116;2023-02-28T05:13:15;-2.10;99.90
770;DHT22;368;48.698;9.116;2023-02-28T05:15:43;-2.20;99.90
770;DHT22;368;48.698;9.116;2023-02-28T05:18:10;-1.90;99.90
770;DHT22;368;48.698;9.116;2023-02-28T05:20:37;-2.10;99.90
770;DHT22;368;48.698;9.116;2023-02-28T05:23:04;-1.90;99.90
770;DHT22;368;48.698;9.116;2023-02-28T05:25:30;-2.20;99.90
770;DHT22;368;48.698;9.116;2023-02-28T05:27:57;-2.00;99.90
770;DHT22;368;48.698;9.116;2023-02-28T05:30:24;-1.90;99.90
770;DHT22;368;48.698;9.116;2023-02-28T05:32:52;-2.10;99.90
770;DHT22;368;48.698;9.116;2023-02-28T05:35:19;-1.90;99.90
770;DHT22;368;48.698;9.116;2023-02-28T05:37:46;-1.90;99.90
770;DHT22;368;48.698;9.116;2023-02-28T05:40:13;-2.10;99.90
770;DHT22;368;48.698;9.116;2023-02-28T05:42:41;-1.90;99.90
770;DHT22;368;48.698;9.116;2023-02-28T05:45:08;-2.10;99.90
770;DHT22;368;48.698;9.116;2023-02-28T05:47:36;-1.90;99.90
770;DHT22;368;48.698;9.116;2023-02-28T05:50:05;-1.90;99.90
770;DHT22;368;48.698;9.116;2023-02-28T05:52:32;-1.80;99.90
770;DHT22;368;48.698;9.116;2023-02-28T05:54:59;-1.90;99.90
770;DHT22;368;48.698;9.116;2023-02-28T05:57:26;-2.10;99.90
770;DHT22;368;48.698;9.116;2023-02-28T05:59:53;-1.90;99.90
770;DHT22;368;48.698;9.116;2023-02-28T06:02:19;-2.10;99.90
770;DHT22;368;48.698;9.116;2023-02-28T06:04:46;-2.10;99.90
770;DHT22;368;48.698;9.116;2023-02-28T06:07:14;-1.70;99.90
770;DHT22;368;48.698;9.116;2023-02-28T06:09:43;-1.80;99.90
770;DHT22;368;48.698;9.116;2023-02-28T06:12:09;-1.80;99.90
770;DHT22;368;48.698;9.116;2023-02-28T06:14:36;-1.70;99.90
770;DHT22;368;48.698;9.116;2023-02-28T06:17:03;-1.90;99.90
770;DHT22;368;48.698;9.116;2023-02-28T06:19:30;-1.70;99.90
770;DHT22;368;48.698;9.116;2023-02-28T06:21:57;-1.80;99.90
770;DHT22;368;48.698;9.116;2023-02-28T06:24:26;-2.10;99.90
770;DHT22;368;48.698;9.116;2023-02-28T06:26:54;-1.80;99.90
770;DHT22;368;48.698;9.116;2023-02-28T06:29:21;-2.00;99.90
770;DHT22;368;48.698;9.116;2023-02-28T06:31:48;-2.10;99.90
770;DHT22;368;48.698;9.116;2023-02-28T06:34:15;-1.60;99.90
770;DHT22;368;48.698;9.116;2023-02-28T06:36:42;-1.60;99.90
770;DHT22;368;48.698;9.116;2023-02-28T06:39:09;-1.80;99.90
770;DHT22;368;48.698;9.116;2023-02-28T06:41:37;-1.50;99.90
770;DHT22;368;48.698;9.116;2023-02-28T06:44:05;-1.80;99.90
770;DHT22;368;48.698;9.116;2023-02-28T06:46:35;-1.60;99.90
770;DHT22;368;48.698;9.116;2023-02-28T06:49:03;-1.50;99.90
770;DHT22;368;48.698;9.116;2023-02-28T06:51:30;-1.50;99.90
770;DHT22;368;48.698;9.116;2023-02-28T06:53:57;-1.50;99.90
770;DHT22;368;48.698;9.116;2023-02-28T06:56:24;-1.40;99.90
770;DHT22;368;48.698;9.116;2023-02-28T06:58:52;-1.40;99.90
770;DHT22;368;48.698;9.116;2023-02-28T07:01:19;-1.20;99.90
770;DHT22;368;48.698;9.116;2023-02-28T07:03:48;-1.70;99.90
770;DHT22;368;48.698;9.116;2023-02-28T07:06:17;-1.50;99.90
770;DHT22;368;48.698;9.116;2023-02-28T07:08:44;-1.40;99.90
770;DHT22;368;48.698;9.116;2023-02-28T07:11:11;-1.40;99.90
770;DHT22;368;48.698;9.116;2023-02-28T07:13:38;-1.50;99.90
770;DHT22;368;48.698;9.116;2023-02-28T07:16:09;-1.30;99.90
770;DHT22;368;48.698;9.116;2023-02-28T07:18:36;-1.30;99.90
770;DHT22;368;48.698;9.116;2023-02-28T07:21:05;-1.20;99.90
770;DHT22;368;48.698;9.116;2023-02-28T07:23:32;-1.00;99.90
770;DHT22;368;48.698;9.116;2023-02-28T07:25:59;-1.10;99.90
770;DHT22;368;48.698;9.116;2023-02-28T07:28:26;-1.20;99.90
770;DHT22;368;48.698;9.116;2023-02-28T07:30:53;-1.00;99.90
770;DHT22;368;48.698;9.116;2023-02-28T07:33:21;-1.10;99.90
770;DHT22;368;48.698;9.116;2023-02-28T07:35:49;-1.30;99.90
770;DHT22;368;48.698;9.116;2023-02-28T07:38:16;-1.00;99.90
770;DHT22;368;48.698;9.116;2023-02-28T07:40:42;-1.10;99.90
770;DHT22;368;48.698;9.116;2023-02-28T07:43:09;-1.10;99.90
770;DHT22;368;48.698;9.116;2023-02-28T07:45:36;-1.00;99.90
770;DHT22;368;48.698;9.116;2023-02-28T07:48:03;-1.00;99.90
770;DHT22;368;48.698;9.116;2023-02-28T07:50:31;-1.00;99.90
770;DHT22;368;48.698;9.116;2023-02-28T07:52:58;-0.60;99.90
770;DHT22;368;48.698;9.116;2023-02-28T07:55:25;-0.70;99.90
770;DHT22;368;48.698;9.116;2023-02-28T07:57:52;-1.00;99.90
770;DHT22;368;48.698;9.116;2023-02-28T08:00:19;-1.10;99.90
770;DHT22;368;48.698;9.116;2023-02-28T08:02:47;-0.80;99.90
770;DHT22;368;48.698;9.116;2023-02-28T08:05:13;-1.00;99.90
770;DHT22;368;48.698;9.116;2023-02-28T08:07:41;-0.90;99.90
770;DHT22;368;48.698;9.116;2023-02-28T08:10:10;-0.70;99.90
770;DHT22;368;48.698;9.116;2023-02-28T08:12:37;-0.50;99.90
770;DHT22;368;48.698;9.116;2023-02-28T08:15:05;-1.00;99.90
770;DHT22;368;48.698;9.116;2023-02-28T08:17:32;-0.80;99.90
770;DHT22;368;48.698;9.116;2023-02-28T08:19:59;-0.60;99.90
770;DHT22;368;48.698;9.116;2023-02-28T08:22:25;-0.40;99.90
770;DHT22;368;48.698;9.116;2023-02-28T08:24:54;-0.70;99.90
770;DHT22;368;48.698;9.116;2023-02-28T08:27:20;-0.70;99.90
770;DHT22;368;48.698;9.116;2023-02-28T08:29:47;-0.70;99.90
770;DHT22;368;48.698;9.116;2023-02-28T08:32:14;-0.40;99.90
770;DHT22;368;48.698;9.116;2023-02-28T08:34:41;-0.60;99.90
770;DHT22;368;48.698;9.116;2023-02-28T08:37:08;-0.60;99.90
770;DHT22;368;48.698;9.116;2023-02-28T08:39:35;-0.60;99.90
770;DHT22;368;48.698;9.116;2023-02-28T08:42:04;-0.20;99.90
770;DHT22;368;48.698;9.116;2023-02-28T08:44:30;-0.50;99.90
770;DHT22;368;48.698;9.116;2023-02-28T08:46:57;-0.60;99.90
770;DHT22;368;48.698;9.116;2023-02-28T08:49:24;-0.50;99.90
770;DHT22;368;48.698;9.116;2023-02-28T08:51:51;-0.50;99.90
770;DHT22;368;48.698;9.116;2023-02-28T08:54:18;-0.50;99.90
770;DHT22;368;48.698;9.116;2023-02-28T08:56:45;-0.20;99.90
770;DHT22;368;48.698;9.116;2023-02-28T08:59:13;-0.20;99.90
770;DHT22;368;48.698;9.116;2023-02-28T09:01:41;-0.20;99.90
770;DHT22;368;48.698;9.116;2023-02-28T09:04:09;-0.30;99.90
770;DHT22;368;48.698;9.116;2023-02-28T09:06:37;-0.40;99.90
770;DHT22;368;48.698;9.116;2023-02-28T09:09:04;-0.10;99.90
770;DHT22;368;48.698;9.116;2023-02-28T09:11:33;-0.20;99.90
770;DHT22;368;48.698;9.116;2023-02-28T09:14:00;0.10;99.60
770;DHT22;368;48.698;9.116;2023-02-28T09:16:30;0.00;99.50
770;DHT22;368;48.698;9.116;2023-02-28T09:18:58;-0.20;99.60
770;DHT22;368;48.698;9.116;2023-02-28T09:21:24;-0.10;99.80
770;DHT22;368;48.698;9.116;2023-02-28T09:23:52;0.00;99.90
770;DHT22;368;48.698;9.116;2023-02-28T09:26:21;-0.10;99.40
770;DHT22;368;48.698;9.116;2023-02-28T09:28:49;0.20;99.30
770;DHT22;368;48.698;9.116;2023-02-28T09:31:18;-0.30;99.90
770;DHT22;368;48.698;9.116;2023-02-28T09:33:47;-0.20;99.60
770;DHT22;368;48.698;9.116;2023-02-28T09:36:14;0.00;99.40
770;DHT22;368;48.698;9.116;2023-02-28T09:38:41;0.30;99.50
770;DHT22;368;48.698;9.116;2023-02-28T09:41:14;0.10;99.30
770;DHT22;368;48.698;9.116;2023-02-28T09:43:45;-0.10;99.30
770;DHT22;368;48.698;9.116;2023-02-28T09:46:22;0.20;99.40
770;DHT22;368;48.698;9.116;2023-02-28T09:48:54;0.30;99.00
770;DHT22;368;48.698;9.116;2023-02-28T09:51:35;0.10;98.40
770;DHT22;368;48.698;9.116;2023-02-28T09:54:04;0.30;98.90
770;DHT22;368;48.698;9.116;2023-02-28T09:56:36;0.30;99.10
770;DHT22;368;48.698;9.116;2023-02-28T09:59:09;0.50;98.90
770;DHT22;368;48.698;9.116;2023-02-28T10:01:41;0.70;98.40
770;DHT22;368;48.698;9.116;2023-02-28T10:04:17;0.60;98.30
770;DHT22;368;48.698;9.116;2023-02-28T10:06:51;0.60;98.30
770;DHT22;368;48.698;9.116;2023-02-28T10:09:21;0.80;98.20
770;DHT22;368;48.698;9.116;2023-02-28T10:11:51;0.80;97.80
770;DHT22;368;48.698;9.116;2023-02-28T10:14:21;0.80;97.30
770;DHT22;368;48.698;9.116;2023-02-28T10:16:50;0.70;97.50
770;DHT22;368;48.698;9.116;2023-02-28T10:19:24;0.60;96.60
770;DHT22;368;48.698;9.116;2023-02-28T10:21:56;0.90;97.20
770;DHT22;368;48.698;9.116;2023-02-28T10:24:28;1.10;96.80
770;DHT22;368;48.698;9.116;2023-02-28T10:27:00;1.00;96.50
770;DHT22;368;48.698;9.116;2023-02-28T10:29:27;1.50;96.60
770;DHT22;368;48.698;9.116;2023-02-28T10:32:02;1.40;96.10
770;DHT22;368;48.698;9.116;2023-02-28T10:34:31;1.60;96.10
770;DHT22;368;48.698;9.116;2023-02-28T10:36:59;1.50;96.20
770;DHT22;368;48.698;9.116;2023-02-28T10:39:41;1.50;95.50
770;DHT22;368;48.698;9.116;2023-02-28T10:42:22;1.80;95.30
770;DHT22;368;48.698;9.116;2023-02-28T10:45:05;1.90;95.00
770;DHT22;368;48.698;9.116;2023-02-28T10:47:33;1.80;94.10
770;DHT22;368;48.698;9.116;2023-02-28T10:50:03;2.20;94.50
770;DHT22;368;48.698;9.116;2023-02-28T10:52:37;2.00;93.80
770;DHT22;368;48.698;9.116;2023-02-28T10:55:19;2.30;93.70
770;DHT22;368;48.698;9.116;2023-02-28T10:57:47;2.40;93.30
770;DHT22;368;48.698;9.116;2023-02-28T11:00:16;2.50;93.80
770;DHT22;368;48.698;9.116;2023-02-28T11:02:44;2.20;92.90
770;DHT22;368;48.698;9.116;2023-02-28T11:05:28;2.90;93.00
770;DHT22;368;48.698;9.116;2023-02-28T11:07:57;2.90;92.50
770;DHT22;368;48.698;9.116;2023-02-28T11:10:29;3.60;91.20
770;DHT22;368;48.698;9.116;2023-02-28T11:12:58;4.80;91.00
770;DHT22;368;48.698;9.116;2023-02-28T11:15:27;5.50;87.20
770;DHT22;368;48.698;9.116;2023-02-28T11:17:57;5.90;80.10
770;DHT22;368;48.698;9.116;2023-02-28T11:20:28;6.60;82.20
770;DHT22;368;48.698;9.116;2023-02-28T11:22:57;7.50;78.00
770;DHT22;368;48.698;9.116;2023-02-28T11:25:28;7.50;75.00
770;DHT22;368;48.698;9.116;2023-02-28T11:27:57;7.20;75.70
770;DHT22;368;48.698;9.116;2023-02-28T11:30:37;8.50;72.10
770;DHT22;368;48.698;9.116;2023-02-28T11:33:26;6.80;72.50
770;DHT22;368;48.698;9.116;2023-02-28T11:35:58;5.80;77.00
770;DHT22;368;48.698;9.116;2023-02-28T11:38:26;8.80;75.50
770;DHT22;368;48.698;9.116;2023-02-28T11:41:05;10.50;68.20
770;DHT22;368;48.698;9.116;2023-02-28T11:43:46;7.80;68.50
770;DHT22;368;48.698;9.116;2023-02-28T11:46:26;8.00;72.00
770;DHT22;368;48.698;9.116;2023-02-28T11:49:05;11.40;66.20
770;DHT22;368;48.698;9.116;2023-02-28T11:51:43;12.40;62.20
770;DHT22;368;48.698;9.116;2023-02-28T11:54:30;12.20;59.10
770;DHT22;368;48.698;9.116;2023-02-28T11:57:03;9.60;66.40
770;DHT22;368;48.698;9.116;2023-02-28T11:59:47;7.60;70.00
770;DHT22;368;48.698;9.116;2023-02-28T12:02:26;6.90;72.30
770;DHT22;368;48.698;9.116;2023-02-28T12:05:11;7.30;73.50
770;DHT22;368;48.698;9.116;2023-02-28T12:07:49;9.60;69.30
770;DHT22;368;48.698;9.116;2023-02-28T12:10:21;9.30;67.60
770;DHT22;368;48.698;9.116;2023-02-28T12:12:57;7.20;71.60
770;DHT22;368;48.698;9.116;2023-02-28T12:15:48;6.80;72.50
770;DHT22;368;48.698;9.116;2023-02-28T12:18:30;6.90;72.00
770;DHT22;368;48.698;9.116;2023-02-28T12:21:04;6.30;71.60
770;DHT22;368;48.698;9.116;2023-02-28T12:23:56;6.70;73.70
770;DHT22;368;48.698;9.116;2023-02-28T12:26:32;5.80;75.40
770;DHT22;368;48.698;9.116;2023-02-28T12:29:07;6.20;76.20
770;DHT22;368;48.698;9.116;2023-02-28T12:31:39;5.90;76.30
770;DHT22;368;48.698;9.116;2023-02-28T12:34:12;5.60;74.10
770;DHT22;368;48.698;9.116;2023-02-28T12:36:41;6.10;77.00
770;DHT22;368;48.698;9.116;2023-02-28T12:39:16;8.20;73.00
770;DHT22;368;48.698;9.116;2023-02-28T12:41:50;7.60;68.50
770;DHT22;368;48.698;9.116;2023-02-28T12:44:22;8.40;71.00
770;DHT22;368;48.698;9.116;2023-02-28T12:46:59;8.80;71.00
770;DHT22;368;48.698;9.116;2023-02-28T12:49:30;8.00;70.60
770;DHT22;368;48.698;9.116;2023-02-28T12:51:59;7.10;71.10
770;DHT22;368;48.698;9.116;2023-02-28T12:54:31;7.90;72.90
770;DHT22;368;48.698;9.116;2023-02-28T12:57:07;8.00;69.40
770;DHT22;368;48.698;9.116;2023-02-28T12:59:39;8.60;69.40
770;DHT22;368;48.698;9.116;2023-02-28T13:02:45;10.30;64.00
770;DHT22;368;48.698;9.116;2023-02-28T13:05:35;11.30;62.10
770;DHT22;368;48.698;9.116;2023-02-28T13:08:42;9.50;65.00
770;DHT22;368;48.698;9.116;2023-02-28T13:11:27;10.70;66.80
770;DHT22;368;48.698;9.116;2023-02-28T13:14:00;10.00;64.00
770;DHT22;368;48.698;9.116;2023-02-28T13:16:28;12.80;61.50
770;DHT22;368;48.698;9.116;2023-02-28T13:19:09;11.90;62.00
770;DHT22;368;48.698;9.116;2023-02-28T13:21:43;10.10;63.00
770;DHT22;368;48.698;9.116;2023-02-28T13:24:11;10.00;64.50
770;DHT22;368;48.698;9.116;2023-02-28T13:27:22;8.90;66.00
770;DHT22;368;48.698;9.116;2023-02-28T13:29:51;8.70;67.90
770;DHT22;368;48.698;9.116;2023-02-28T13:35:35;10.70;64.70
770;DHT22;368;48.698;9.116;2023-02-28T13:38:17;11.00;62.80
770;DHT22;368;48.698;9.116;2023-02-28T13:40:47;9.70;64.50
770;DHT22;368;48.698;9.116;2023-02-28T13:43:18;10.70;61.30
770;DHT22;368;48.698;9.116;2023-02-28T13:46:04;9.80;64.10
770;DHT22;368;48.698;9.116;2023-02-28T13:48:31;11.40;61.40
770;DHT22;368;48.698;9.116;2023-02-28T13:50:58;11.80;60.00
770;DHT22;368;48.698;9.116;2023-02-28T13:53:51;12.60;58.60
770;DHT22;368;48.698;9.116;2023-02-28T13:56:33;11.00;61.30
770;DHT22;368;48.698;9.116;2023-02-28T13:59:12;12.70;58.80
770;DHT22;368;48.698;9.116;2023-02-28T14:01:51;11.40;57.50
770;DHT22;368;48.698;9.116;2023-02-28T14:04:46;9.90;59.10
770;DHT22;368;48.698;9.116;2023-02-28T14:07:20;12.10;59.90
770;DHT22;368;48.698;9.116;2023-02-28T14:09:57;10.50;58.80
770;DHT22;368;48.698;9.116;2023-02-28T14:12:56;11.30;59.40
770;DHT22;368;48.698;9.116;2023-02-28T14:15:41;10.30;62.10
770;DHT22;368;48.698;9.116;2023-02-28T14:18:31;11.00;59.50
770;DHT22;368;48.698;9.116;2023-02-28T14:21:08;10.30;59.30
770;DHT22;368;48.698;9.116;2023-02-28T14:23:45;9.10;63.20
770;DHT22;368;48.698;9.116;2023-02-28T14:26:25;8.80;66.70
770;DHT22;368;48.698;9.116;2023-02-28T14:29:07;8.00;66.40
770;DHT22;368;48.698;9.116;2023-02-28T14:31:46;8.10;68.30
770;DHT22;368;48.698;9.116;2023-02-28T14:34:26;10.00;63.90
770;DHT22;368;48.698;9.116;2023-02-28T14:36:58;10.30;61.50
770;DHT22;368;48.698;9.116;2023-02-28T14:39:27;10.40;63.00
770;DHT22;368;48.698;9.116;2023-02-28T14:41:57;9.20;64.00
770;DHT22;368;48.698;9.116;2023-02-28T14:44:29;8.60;65.10
770;DHT22;368;48.698;9.116;2023-02-28T14:46:59;8.00;66.90
770;DHT22;368;48.698;9.116;2023-02-28T14:49:31;7.10;70.50
770;DHT22;368;48.698;9.116;2023-02-28T14:52:05;7.40;69.70
770;DHT22;368;48.698;9.116;2023-02-28T14:54:35;6.90;71.60
770;DHT22;368;48.698;9.116;2023-02-28T14:57:02;8.90;70.10
770;DHT22;368;48.698;9.116;2023-02-28T14:59:31;8.30;66.70
770;DHT22;368;48.698;9.116;2023-02-28T15:02:34;8.10;67.80
770;DHT22;368;48.698;9.116;2023-02-28T15:05:20;7.80;68.20
770;DHT22;368;48.698;9.116;2023-02-28T15:07:48;8.20;66.70
770;DHT22;368;48.698;9.116;2023-02-28T15:10:18;7.90;68.20
770;DHT22;368;48.698;9.116;2023-02-28T15:12:50;8.70;68.30
770;DHT22;368;48.698;9.116;2023-02-28T15:15:19;10.10;64.50
770;DHT22;368;48.698;9.116;2023-02-28T15:17:50;7.70;64.70
770;DHT22;368;48.698;9.116;2023-02-28T15:20:19;6.70;68.80
770;DHT22;368;48.698;9.116;2023-02-28T15:22:47;6.90;70.50
770;DHT22;368;48.698;9.116;2023-02-28T15:25:20;7.70;71.60
770;DHT22;368;48.698;9.116;2023-02-28T15:27:50;8.70;67.70
770;DHT22;368;48.698;9.116;2023-02-28T15:30:20;8.90;67.60
770;DHT22;368;48.698;9.116;2023-02-28T15:33:05;8.80;66.60
770;DHT22;368;48.698;9.116;2023-02-28T15:35:34;9.70;65.40
770;DHT22;368;48.698;9.116;2023-02-28T15:38:02;7.70;67.20
770;DHT22;368;48.698;9.116;2023-02-28T15:40:36;8.50;68.30
770;DHT22;368;48.698;9.116;2023-02-28T15:43:05;8.40;67.40
770;DHT22;368;48.698;9.116;2023-02-28T15:45:36;8.70;67.00
770;DHT22;368;48.698;9.116;2023-02-28T15:48:09;7.60;68.00
770;DHT22;368;48.698;9.116;2023-02-28T15:50:40;6.50;70.30
770;DHT22;368;48.698;9.116;2023-02-28T15:53:13;6.50;72.00
770;DHT22;368;48.698;9.116;2023-02-28T15:55:40;6.70;71.50
770;DHT22;368;48.698;9.116;2023-02-28T15:58:10;7.10;70.80
770;DHT22;368;48.698;9.116;2023-02-28T16:00:39;6.70;70.20
770;DHT22;368;48.698;9.116;2023-02-28T16:03:25;5.90;71.50
770;DHT22;368;48.698;9.116;2023-02-28T16:06:20;6.30;73.20
770;DHT22;368;48.698;9.116;2023-02-28T16:08:48;5.80;74.00
770;DHT22;368;48.698;9.116;2023-02-28T16:11:17;5.60;74.20
770;DHT22;368;48.698;9.116;2023-02-28T16:13:44;5.40;75.40
770;DHT22;368;48.698;9.116;2023-02-28T16:16:15;5.60;74.80
770;DHT22;368;48.698;9.116;2023-02-28T16:18:44;5.30;74.80
770;DHT22;368;48.698;9.116;2023-02-28T16:21:11;5.00;76.20
770;DHT22;368;48.698;9.116;2023-02-28T16:23:38;5.20;77.10
770;DHT22;368;48.698;9.116;2023-02-28T16:26:05;4.40;78.40
770;DHT22;368;48.698;9.116;2023-02-28T16:28:35;4.70;78.10
770;DHT22;368;48.698;9.116;2023-02-28T16:31:05;4.40;78.70
770;DHT22;368;48.698;9.116;2023-02-28T16:33:33;4.10;80.20
770;DHT22;368;48.698;9.116;2023-02-28T16:36:01;3.50;82.30
770;DHT22;368;48.698;9.116;2023-02-28T16:38:28;3.40;82.90
770;DHT22;368;48.698;9.116;2023-02-28T16:40:56;3.60;83.40
770;DHT22;368;48.698;9.116;2023-02-28T16:43:26;3.20;84.00
770;DHT22;368;48.698;9.116;2023-02-28T16:45:55;3.30;84.40
770;DHT22;368;48.698;9.116;2023-02-28T16:48:22;3.10;85.00
770;DHT22;368;48.698;9.116;2023-02-28T16:50:49;3.10;85.50
770;DHT22;368;48.698;9.116;2023-02-28T16:53:17;3.10;85.70
770;DHT22;368;48.698;9.116;2023-02-28T16:55:44;2.50;86.80
770;DHT22;368;48.698;9.116;2023-02-28T16:58:14;2.70;88.20
770;DHT22;368;48.698;9.116;2023-02-28T17:00:43;2.80;88.30
770;DHT22;368;48.698;9.116;2023-02-28T17:03:20;2.30;88.90
770;DHT22;368;48.698;9.116;2023-02-28T17:05:48;2.50;89.10
770;DHT22;368;48.698;9.116;2023-02-28T17:08:16;2.60;88.90
770;DHT22;368;48.698;9.116;2023-02-28T17:10:44;2.40;89.70
770;DHT22;368;48.698;9.116;2023-02-28T17:13:11;2.20;90.00